sensor_id;sensor_type;location;lat;lon;timestamp;temperature;humidity
84393;DHT22;74592;48.846;2.358;2024-01-30T18:49:35;20.10;36.50
84393;DHT22;74592;48.846;2.358;2024-01-30T18:52:01;20.30;37.50
84393;DHT22;74592;48.846;2.358;2024-01-30T18:54:28;20.50;36.00
84393;DHT22;74592;48.846;2.358;2024-01-30T18:57:58;21.00;35.50
84393;DHT22;74592;48.846;2.358;2024-01-30T19:00:24;21.30;35.30
84393;DHT22;74592;48.846;2.358;2024-01-30T19:02:51;21.60;33.70
84393;DHT22;74592;48.846;2.358;2024-01-30T19:07:15;21.70;32.50
84393;DHT22;74592;48.846;2.358;2024-01-30T19:09:41;21.70;32.80
84393;DHT22;74592;48.846;2.358;2024-01-30T19:12:06;21.70;33.00
84393;DHT22;74592;48.846;2.358;2024-01-30T19:14:32;21.60;33.00
84393;DHT22;74592;48.846;2.358;2024-01-30T19:16:59;21.60;33.00
84393;DHT22;74592;48.846;2.358;2024-01-30T19:19:25;21.50;33.00
84393;DHT22;74592;48.846;2.358;2024-01-30T19:21:50;21.50;33.10
84393;DHT22;74592;48.846;2.358;2024-01-30T19:24:18;21.50;33.10
84393;DHT22;74592;48.846;2.358;2024-01-30T19:26:43;21.50;33.10
84393;DHT22;74592;48.846;2.358;2024-01-30T19:29:09;21.50;33.10
84393;DHT22;74592;48.846;2.358;2024-01-30T19:31:35;21.50;33.10
84393;DHT22;74592;48.846;2.358;2024-01-30T19:34:03;21.50;33.00
84393;DHT22;74592;48.846;2.358;2024-01-30T19:36:29;21.50;33.20
84393;DHT22;74592;48.846;2.358;2024-01-30T19:38:55;21.50;33.20
84393;DHT22;74592;48.846;2.358;2024-01-30T19:41:23;21.50;33.20
84393;DHT22;74592;48.846;2.358;2024-01-30T19:43:49;21.50;33.50
84393;DHT22;74592;48.846;2.358;2024-01-30T19:46:15;21.60;33.60
84393;DHT22;74592;48.846;2.358;2024-01-30T19:48:40;21.60;33.70
84393;DHT22;74592;48.846;2.358;2024-01-30T19:51:07;21.70;33.80
84393;DHT22;74592;48.846;2.358;2024-01-30T19:53:33;21.70;33.80
84393;DHT22;74592;48.846;2.358;2024-01-30T19:55:58;21.80;33.90
84393;DHT22;74592;48.846;2.358;2024-01-30T19:58:24;21.80;34.10
84393;DHT22;74592;48.846;2.358;2024-01-30T20:00:50;21.90;34.30
84393;DHT22;74592;48.846;2.358;2024-01-30T20:03:15;22.00;34.40
84393;DHT22;74592;48.846;2.358;2024-01-30T20:05:41;22.00;34.40
84393;DHT22;74592;48.846;2.358;2024-01-30T20:08:06;22.10;34.50
84393;DHT22;74592;48.846;2.358;2024-01-30T20:10:32;22.20;34.40
84393;DHT22;74592;48.846;2.358;2024-01-30T20:12:58;22.20;34.40
84393;DHT22;74592;48.846;2.358;2024-01-30T20:15:23;22.30;34.60
84393;DHT22;74592;48.846;2.358;2024-01-30T20:17:50;22.30;34.50
84393;DHT22;74592;48.846;2.358;2024-01-30T20:20:15;22.40;34.60
84393;DHT22;74592;48.846;2.358;2024-01-30T20:22:43;22.40;34.60
84393;DHT22;74592;48.846;2.358;2024-01-30T20:25:09;22.40;34.60
84393;DHT22;74592;48.846;2.358;2024-01-30T20:27:38;22.40;34.60
84393;DHT22;74592;48.846;2.358;2024-01-30T20:30:05;22.50;35.50
84393;DHT22;74592;48.846;2.358;2024-01-30T20:32:31;22.50;35.20
84393;DHT22;74592;48.846;2.358;2024-01-30T20:34:57;22.50;35.10
84393;DHT22;74592;48.846;2.358;2024-01-30T20:37:24;22.60;34.90
84393;DHT22;74592;48.846;2.358;2024-01-30T20:39:50;22.50;35.50
84393;DHT22;74592;48.846;2.358;2024-01-30T20:42:15;22.60;35.50
84393;DHT22;74592;48.846;2.358;2024-01-30T20:44:41;22.60;36.00
84393;DHT22;74592;48.846;2.358;2024-01-30T20:47:06;22.60;35.50
84393;DHT22;74592;48.846;2.358;2024-01-30T20:49:35;22.60;35.00
84393;DHT22;74592;48.846;2.358;2024-01-30T20:52:01;22.60;35.00
84393;DHT22;74592;48.846;2.358;2024-01-30T20:54:26;22.60;35.00
84393;DHT22;74592;48.846;2.358;2024-01-30T20:56:52;22.60;35.20
84393;DHT22;74592;48.846;2.358;2024-01-30T20:59:17;22.60;35.20
84393;DHT22;74592;48.846;2.358;2024-01-30T21:01:43;22.60;35.30
84393;DHT22;74592;48.846;2.358;2024-01-30T21:04:08;22.60;35.70
84393;DHT22;74592;48.846;2.358;2024-01-30T21:06:34;22.60;36.20
84393;DHT22;74592;48.846;2.358;2024-01-30T21:09:00;22.60;35.10
84393;DHT22;74592;48.846;2.358;2024-01-30T21:11:26;22.60;35.00
84393;DHT22;74592;48.846;2.358;2024-01-30T21:13:51;22.60;35.30
84393;DHT22;74592;48.846;2.358;2024-01-30T21:16:17;22.60;35.20
84393;DHT22;74592;48.846;2.358;2024-01-30T21:18:43;22.60;35.10
84393;DHT22;74592;48.846;2.358;2024-01-30T21:21:09;22.60;35.20
84393;DHT22;74592;48.846;2.358;2024-01-30T21:23:35;22.60;35.10
84393;DHT22;74592;48.846;2.358;2024-01-30T21:26:01;22.50;35.00
84393;DHT22;74592;48.846;2.358;2024-01-30T21:28:32;22.50;34.90
84393;DHT22;74592;48.846;2.358;2024-01-30T21:30:58;22.50;34.70
84393;DHT22;74592;48.846;2.358;2024-01-30T21:33:23;22.50;35.30
84393;DHT22;74592;48.846;2.358;2024-01-30T21:35:49;22.50;34.60
84393;DHT22;74592;48.846;2.358;2024-01-30T21:38:15;22.50;34.50
84393;DHT22;74592;48.846;2.358;2024-01-30T21:40:41;22.40;34.40
84393;DHT22;74592;48.846;2.358;2024-01-30T21:43:07;22.40;34.70
84393;DHT22;74592;48.846;2.358;2024-01-30T21:45:32;22.40;34.50
84393;DHT22;74592;48.846;2.358;2024-01-30T21:47:58;22.40;34.50
84393;DHT22;74592;48.846;2.358;2024-01-30T21:50:27;22.40;34.20
84393;DHT22;74592;48.846;2.358;2024-01-30T21:52:53;22.40;34.00
84393;DHT22;74592;48.846;2.358;2024-01-30T21:55:18;22.30;34.10
84393;DHT22;74592;48.846;2.358;2024-01-30T21:57:44;22.30;34.70
84393;DHT22;74592;48.846;2.358;2024-01-30T22:00:10;22.30;34.60
84393;DHT22;74592;48.846;2.358;2024-01-30T22:02:36;22.30;34.70
84393;DHT22;74592;48.846;2.358;2024-01-30T22:05:03;22.30;34.70
84393;DHT22;74592;48.846;2.358;2024-01-30T22:07:29;22.30;34.60
84393;DHT22;74592;48.846;2.358;2024-01-30T22:09:54;22.30;34.50
84393;DHT22;74592;48.846;2.358;2024-01-30T22:12:20;22.30;34.20
84393;DHT22;74592;48.846;2.358;2024-01-30T22:14:45;22.30;34.30
84393;DHT22;74592;48.846;2.358;2024-01-30T22:17:11;22.30;34.10
84393;DHT22;74592;48.846;2.358;2024-01-30T22:19:36;22.30;34.10
84393;DHT22;74592;48.846;2.358;2024-01-30T22:22:02;22.20;33.80
84393;DHT22;74592;48.846;2.358;2024-01-30T22:24:29;22.20;33.60
84393;DHT22;74592;48.846;2.358;2024-01-30T22:26:54;22.20;33.60
84393;DHT22;74592;48.846;2.358;2024-01-30T22:29:20;22.20;33.60
84393;DHT22;74592;48.846;2.358;2024-01-30T22:31:46;22.20;33.40
84393;DHT22;74592;48.846;2.358;2024-01-30T22:34:11;22.20;33.50
84393;DHT22;74592;48.846;2.358;2024-01-30T22:36:37;22.20;33.30
84393;DHT22;74592;48.846;2.358;2024-01-30T22:39:03;22.10;33.20
84393;DHT22;74592;48.846;2.358;2024-01-30T22:41:32;22.20;33.20
84393;DHT22;74592;48.846;2.358;2024-01-30T22:43:58;22.10;33.20
84393;DHT22;74592;48.846;2.358;2024-01-30T22:46:23;22.10;33.00
84393;DHT22;74592;48.846;2.358;2024-01-30T22:48:49;22.10;33.00
84393;DHT22;74592;48.846;2.358;2024-01-30T22:51:14;22.10;33.00
84393;DHT22;74592;48.846;2.358;2024-01-30T22:53:40;22.10;33.40
84393;DHT22;74592;48.846;2.358;2024-01-30T22:56:06;22.10;33.30
84393;DHT22;74592;48.846;2.358;2024-01-30T22:58:32;22.10;33.00
84393;DHT22;74592;48.846;2.358;2024-01-30T23:00:58;22.10;33.30
84393;DHT22;74592;48.846;2.358;2024-01-30T23:03:23;22.00;33.30
84393;DHT22;74592;48.846;2.358;2024-01-30T23:05:49;22.10;33.10
84393;DHT22;74592;48.846;2.358;2024-01-30T23:08:14;22.10;33.00
84393;DHT22;74592;48.846;2.358;2024-01-30T23:10:43;22.10;32.90
84393;DHT22;74592;48.846;2.358;2024-01-30T23:13:09;22.10;32.80
84393;DHT22;74592;48.846;2.358;2024-01-30T23:15:35;22.00;32.70
84393;DHT22;74592;48.846;2.358;2024-01-30T23:18:00;22.00;32.70
84393;DHT22;74592;48.846;2.358;2024-01-30T23:20:26;22.00;32.60
84393;DHT22;74592;48.846;2.358;2024-01-30T23:22:51;22.00;32.50
84393;DHT22;74592;48.846;2.358;2024-01-30T23:25:18;22.00;32.40
84393;DHT22;74592;48.846;2.358;2024-01-30T23:27:43;22.00;32.60
84393;DHT22;74592;48.846;2.358;2024-01-30T23:30:09;22.00;32.60
84393;DHT22;74592;48.846;2.358;2024-01-30T23:32:36;22.00;32.30
84393;DHT22;74592;48.846;2.358;2024-01-30T23:35:02;22.00;32.50
84393;DHT22;74592;48.846;2.358;2024-01-30T23:37:28;22.00;32.30
84393;DHT22;74592;48.846;2.358;2024-01-30T23:39:54;22.00;32.20
84393;DHT22;74592;48.846;2.358;2024-01-30T23:42:19;22.00;32.10
84393;DHT22;74592;48.846;2.358;2024-01-30T23:44:45;22.00;32.00
84393;DHT22;74592;48.846;2.358;2024-01-30T23:47:11;22.00;32.10
84393;DHT22;74592;48.846;2.358;2024-01-30T23:49:36;22.00;32.00
84393;DHT22;74592;48.846;2.358;2024-01-30T23:52:02;22.00;32.00
84393;DHT22;74592;48.846;2.358;2024-01-30T23:54:27;21.90;32.00
84393;DHT22;74592;48.846;2.358;2024-01-30T23:56:53;21.90;32.00
84393;DHT22;74592;48.846;2.358;2024-01-30T23:59:19;21.90;32.10
